French Creek, West Virginia
Current Conditions -  °F | °C
As of 11:15 PM on Friday 24 Oct 2014 (Local Time) from KW22 Reporting Station
NA  
Wind Chill: 41°   Ceiling: NA
Heat Index: 41°   Visibility: NA
Dew Point: 41°   Wind: 0mph
Humidity: 100%   Direction: NA
Pressure: 30.06"   Gusts: NA
Location:  38.89°N, 80.3°W
Report Text: KW22 250315Z AUTO 00000KT 05/05 A3006 RMK AO2
Loading
Personal Weather Stations






























Interactive Weather Map New forecast layout! Learn more

10-Day Weather Forecast

Advertisements
Track Severe Weather on mobile